createdAt,value
2018-09-08T00:00:31.033Z,55.60
2018-09-08T00:04:34.697Z,55.60
2018-09-08T00:08:38.395Z,55.70
2018-09-08T00:12:42.038Z,55.60
2018-09-08T00:16:51.012Z,55.50
2018-09-08T00:21:00.036Z,55.60
2018-09-08T00:25:09.178Z,55.50
2018-09-08T00:29:17.002Z,55.50
2018-09-08T00:33:20.614Z,55.50
2018-09-08T00:37:24.252Z,55.60
2018-09-08T00:41:27.984Z,55.50
2018-09-08T00:45:31.640Z,55.70
2018-09-08T00:49:35.283Z,55.70
2018-09-08T00:53:38.909Z,55.60
2018-09-08T00:57:42.609Z,55.90
2018-09-08T01:01:47.136Z,55.90
2018-09-08T01:05:50.937Z,56.00
2018-09-08T01:09:56.874Z,56.10
2018-09-08T01:14:00.487Z,56.20
2018-09-08T01:18:04.170Z,56.00
2018-09-08T01:22:07.850Z,56.10
2018-09-08T01:26:11.562Z,55.90
2018-09-08T01:30:15.281Z,56.00
2018-09-08T01:34:18.918Z,56.20
2018-09-08T01:38:22.675Z,56.00
2018-09-08T01:42:26.383Z,56.00
2018-09-08T01:46:30.068Z,56.00
2018-09-08T01:50:33.762Z,56.00
2018-09-08T01:54:37.411Z,56.70
2018-09-08T01:58:41.066Z,56.20
2018-09-08T02:02:44.810Z,56.00
2018-09-08T02:06:48.531Z,56.10
2018-09-08T02:10:52.187Z,56.10
2018-09-08T02:14:55.847Z,56.00
2018-09-08T02:18:59.497Z,56.30
2018-09-08T02:23:03.159Z,56.00
2018-09-08T02:27:06.856Z,56.30
2018-09-08T02:31:10.569Z,56.30
2018-09-08T02:35:14.201Z,56.30
2018-09-08T02:39:17.814Z,56.40
2018-09-08T02:43:21.452Z,56.30
2018-09-08T02:47:25.111Z,56.50
2018-09-08T02:51:27.576Z,56.30
2018-09-08T02:55:30.639Z,56.60
2018-09-08T02:59:33.097Z,56.90
2018-09-08T03:03:35.570Z,57.40
2018-09-08T03:07:38.051Z,56.90
2018-09-08T03:11:40.513Z,56.70
2018-09-08T03:15:42.964Z,56.50
2018-09-08T03:19:45.440Z,56.80
2018-09-08T03:23:47.911Z,56.80
2018-09-08T03:27:50.378Z,56.90
2018-09-08T03:31:52.840Z,56.90
2018-09-08T03:35:55.318Z,57.40
2018-09-08T03:39:57.742Z,57.30
2018-09-08T03:44:00.221Z,58.10
2018-09-08T03:48:02.684Z,57.30
2018-09-08T03:52:05.152Z,57.30
2018-09-08T03:56:07.625Z,57.20
2018-09-08T04:00:10.060Z,58.00
2018-09-08T04:04:13.715Z,58.20
2018-09-08T04:08:17.361Z,58.00
2018-09-08T04:12:21.063Z,58.00
2018-09-08T04:16:24.733Z,57.50
2018-09-08T04:20:28.354Z,58.40
2018-09-08T04:24:32.011Z,58.20
2018-09-08T04:28:35.724Z,58.00
2018-09-08T04:32:39.359Z,58.60
2018-09-08T04:36:43.004Z,58.50
2018-09-08T04:40:46.671Z,58.50
2018-09-08T04:44:50.552Z,58.10
2018-09-08T04:48:54.187Z,58.80
2018-09-08T04:52:57.818Z,59.30
2018-09-08T04:57:01.474Z,58.80
2018-09-08T05:01:05.079Z,58.70
2018-09-08T05:05:08.725Z,59.20
2018-09-08T05:09:12.904Z,59.20
2018-09-08T05:13:16.496Z,59.50
2018-09-08T05:17:20.215Z,60.00
2018-09-08T05:21:23.875Z,59.30
2018-09-08T05:25:27.529Z,59.50
2018-09-08T05:29:31.209Z,59.50
2018-09-08T05:33:34.843Z,59.50
2018-09-08T05:37:38.563Z,59.50
2018-09-08T05:41:42.192Z,59.50
2018-09-08T05:45:45.947Z,59.20
2018-09-08T05:49:49.600Z,59.30
2018-09-08T05:53:53.336Z,59.40
2018-09-08T05:57:56.960Z,59.90
2018-09-08T06:02:00.817Z,59.60
2018-09-08T06:06:04.957Z,59.70
2018-09-08T06:10:08.717Z,60.30
2018-09-08T06:14:12.457Z,59.90
2018-09-08T06:18:16.161Z,60.80
2018-09-08T06:22:19.792Z,60.00
2018-09-08T06:26:23.432Z,60.10
2018-09-08T06:30:27.117Z,59.70
2018-09-08T06:34:30.792Z,60.20
2018-09-08T06:38:34.426Z,59.70
2018-09-08T06:42:38.040Z,59.80
2018-09-08T06:46:41.715Z,60.40
2018-09-08T06:50:45.376Z,60.70
2018-09-08T06:54:49.142Z,60.00
2018-09-08T06:58:52.999Z,61.10
2018-09-08T07:02:56.630Z,60.50
2018-09-08T07:07:00.291Z,60.90
2018-09-08T07:11:03.936Z,60.60
2018-09-08T07:15:07.678Z,60.80
2018-09-08T07:19:11.305Z,61.10
2018-09-08T07:23:14.923Z,60.70
2018-09-08T07:27:18.664Z,60.90
2018-09-08T07:31:22.349Z,61.60
2018-09-08T07:35:25.989Z,61.10
2018-09-08T07:39:29.653Z,63.20
2018-09-08T07:43:33.341Z,61.90
2018-09-08T07:47:36.993Z,62.30
2018-09-08T07:51:40.652Z,63.00
2018-09-08T07:55:44.312Z,60.20
2018-09-08T07:59:47.966Z,57.30
2018-09-08T08:03:51.581Z,56.30
2018-09-08T08:07:55.235Z,53.80
2018-09-08T08:11:58.895Z,52.30
2018-09-08T08:16:02.572Z,50.00
2018-09-08T08:20:06.340Z,50.40
2018-09-08T08:24:09.938Z,50.30
2018-09-08T08:28:13.637Z,51.50
2018-09-08T08:32:17.335Z,50.50
2018-09-08T08:36:20.982Z,51.00
2018-09-08T08:40:24.684Z,51.30
2018-09-08T08:44:28.322Z,52.60
2018-09-08T08:48:31.978Z,53.50
2018-09-08T08:52:46.827Z,53.30
2018-09-08T08:56:50.556Z,54.00
2018-09-08T09:00:54.211Z,54.00
2018-09-08T09:04:57.876Z,54.10
2018-09-08T09:09:01.523Z,54.00
2018-09-08T09:13:05.303Z,54.90
2018-09-08T09:17:08.918Z,54.20
2018-09-08T09:21:23.836Z,54.50
2018-09-08T09:25:27.500Z,54.10
2018-09-08T09:29:31.184Z,53.50
2018-09-08T09:33:34.847Z,53.50
2018-09-08T09:37:38.545Z,53.90
2018-09-08T09:41:42.887Z,54.10
2018-09-08T09:45:46.629Z,53.30
2018-09-08T09:49:50.292Z,53.10
2018-09-08T09:53:53.994Z,53.70
2018-09-08T09:57:57.668Z,52.80
2018-09-08T10:02:08.315Z,53.50
2018-09-08T10:06:11.992Z,52.20
2018-09-08T10:10:17.019Z,53.40
2018-09-08T10:14:20.699Z,50.90
2018-09-08T10:18:24.331Z,52.30
2018-09-08T10:22:27.988Z,51.80
2018-09-08T10:26:31.689Z,52.00
2018-09-08T10:30:35.458Z,51.70
2018-09-08T10:34:39.167Z,52.80
2018-09-08T10:38:42.827Z,52.30
2018-09-08T10:42:46.454Z,51.50
2018-09-08T10:46:50.094Z,51.70
2018-09-08T10:50:53.813Z,52.30
2018-09-08T10:54:57.436Z,53.10
2018-09-08T10:59:02.062Z,52.40
2018-09-08T11:03:05.671Z,51.50
2018-09-08T11:07:09.517Z,51.40
2018-09-08T11:11:13.175Z,51.10
2018-09-08T11:15:16.866Z,51.40
2018-09-08T11:19:20.588Z,52.60
2018-09-08T11:23:24.199Z,51.70
2018-09-08T11:27:27.899Z,50.40
2018-09-08T11:31:31.580Z,51.70
2018-09-08T11:35:35.216Z,50.90
2018-09-08T11:39:38.843Z,51.00
2018-09-08T11:43:42.473Z,51.30
2018-09-08T11:47:46.132Z,51.50
2018-09-08T11:51:49.765Z,50.20
2018-09-08T11:55:53.399Z,51.30
2018-09-08T11:59:57.041Z,50.80
2018-09-08T12:04:00.656Z,50.80
2018-09-08T12:08:04.325Z,51.60
2018-09-08T12:12:07.988Z,50.60
2018-09-08T12:16:11.648Z,50.80
2018-09-08T12:20:15.366Z,51.00
2018-09-08T12:24:18.966Z,50.30
2018-09-08T12:28:22.633Z,49.00
2018-09-08T12:32:26.275Z,50.10
2018-09-08T12:36:29.956Z,49.20
2018-09-08T12:40:33.693Z,49.30
2018-09-08T12:44:37.306Z,48.30
2018-09-08T12:48:41.123Z,49.60
2018-09-08T12:52:44.798Z,48.60
2018-09-08T12:56:48.444Z,47.40
2018-09-08T13:00:52.125Z,46.90
2018-09-08T13:04:55.731Z,49.30
2018-09-08T13:08:59.386Z,49.80
2018-09-08T13:13:03.052Z,48.50
2018-09-08T13:17:06.815Z,49.30
2018-09-08T13:21:10.447Z,48.60
2018-09-08T13:25:14.067Z,49.30
2018-09-08T13:29:17.766Z,50.30
2018-09-08T13:33:21.408Z,47.20
2018-09-08T13:37:25.046Z,49.10
2018-09-08T13:41:28.699Z,47.60
2018-09-08T13:45:32.344Z,48.20
2018-09-08T13:49:35.988Z,46.90
2018-09-08T13:53:39.663Z,47.50
2018-09-08T13:57:43.354Z,48.60
2018-09-08T14:01:47.039Z,48.20
2018-09-08T14:05:50.666Z,46.70
2018-09-08T14:09:54.322Z,46.60
2018-09-08T14:13:57.983Z,46.80
2018-09-08T14:18:01.639Z,46.20
2018-09-08T14:22:05.285Z,46.60
2018-09-08T14:26:08.910Z,47.20
2018-09-08T14:30:12.669Z,47.50
2018-09-08T14:34:16.344Z,46.70
2018-09-08T14:38:20.011Z,47.10
2018-09-08T14:42:23.788Z,47.60
2018-09-08T14:46:27.408Z,46.80
2018-09-08T14:50:31.114Z,46.50
2018-09-08T14:54:34.756Z,46.60
2018-09-08T14:58:38.437Z,46.50
2018-09-08T15:02:42.113Z,47.50
2018-09-08T15:06:45.764Z,47.80
2018-09-08T15:10:49.429Z,46.90
2018-09-08T15:14:53.089Z,46.60
2018-09-08T15:18:56.744Z,46.80
2018-09-08T15:23:00.397Z,47.30
2018-09-08T15:27:04.091Z,46.50
2018-09-08T15:31:08.103Z,46.60
2018-09-08T15:35:11.763Z,47.40
2018-09-08T15:39:15.493Z,46.70
2018-09-08T15:43:19.160Z,47.00
2018-09-08T15:47:22.792Z,47.80
2018-09-08T15:51:26.516Z,47.90
2018-09-08T15:55:30.158Z,47.90
2018-09-08T15:59:33.883Z,47.00
2018-09-08T16:03:37.521Z,47.60
2018-09-08T16:07:41.176Z,47.90
2018-09-08T16:11:44.815Z,48.00
2018-09-08T16:15:48.489Z,47.90
2018-09-08T16:19:52.198Z,47.40
2018-09-08T16:23:55.812Z,47.30
2018-09-08T16:27:59.487Z,47.40
2018-09-08T16:32:03.156Z,47.40
2018-09-08T16:36:06.900Z,47.50
2018-09-08T16:40:10.565Z,47.90
2018-09-08T16:44:14.300Z,47.10
2018-09-08T16:48:17.933Z,48.00
2018-09-08T16:52:21.626Z,48.30
2018-09-08T16:56:25.260Z,48.20
2018-09-08T17:00:28.913Z,48.30
2018-09-08T17:04:32.548Z,48.50
2018-09-08T17:08:36.188Z,47.90
2018-09-08T17:12:39.875Z,47.70
2018-09-08T17:16:43.541Z,47.90
2018-09-08T17:20:47.203Z,48.20
2018-09-08T17:24:50.862Z,48.30
2018-09-08T17:28:54.532Z,48.30
2018-09-08T17:32:58.204Z,48.50
2018-09-08T17:37:01.886Z,48.40
2018-09-08T17:41:05.557Z,48.70
2018-09-08T17:45:09.176Z,48.90
2018-09-08T17:49:12.876Z,48.90
2018-09-08T17:53:16.551Z,48.80
2018-09-08T17:57:20.430Z,48.80
2018-09-08T18:01:24.068Z,49.00
2018-09-08T18:05:27.692Z,49.00
2018-09-08T18:09:31.345Z,49.10
2018-09-08T18:13:34.995Z,49.00
2018-09-08T18:17:38.833Z,49.10
2018-09-08T18:21:42.488Z,49.30
2018-09-08T18:25:46.104Z,49.30
2018-09-08T18:29:49.978Z,49.40
2018-09-08T18:33:53.611Z,49.50
2018-09-08T18:37:57.313Z,49.60
2018-09-08T18:42:00.953Z,49.70
2018-09-08T18:46:04.564Z,49.70
2018-09-08T18:50:08.251Z,49.80
2018-09-08T18:54:11.907Z,49.70
2018-09-08T18:58:15.549Z,49.80
2018-09-08T19:02:19.211Z,49.90
2018-09-08T19:06:22.835Z,49.80
2018-09-08T19:10:26.536Z,49.90
2018-09-08T19:14:35.314Z,50.00
2018-09-08T19:18:39.104Z,50.10
2018-09-08T19:22:42.751Z,50.10
2018-09-08T19:26:46.375Z,50.10
2018-09-08T19:30:50.164Z,50.20
2018-09-08T19:34:59.117Z,50.30
2018-09-08T19:39:02.825Z,49.60
2018-09-08T19:43:06.517Z,50.40
2018-09-08T19:47:15.418Z,50.30
2018-09-08T19:51:19.082Z,50.40
2018-09-08T19:55:22.740Z,50.40
2018-09-08T19:59:26.466Z,50.40
2018-09-08T20:03:30.168Z,50.50
2018-09-08T20:07:33.775Z,50.50
2018-09-08T20:11:37.436Z,50.50
2018-09-08T20:15:41.075Z,50.60
2018-09-08T20:19:44.898Z,50.70
2018-09-08T20:23:48.396Z,50.70
2018-09-08T20:27:52.053Z,50.80
2018-09-08T20:31:55.797Z,50.90
2018-09-08T20:35:59.440Z,51.00
2018-09-08T20:40:03.188Z,51.30
2018-09-08T20:44:06.830Z,51.20
2018-09-08T20:48:10.472Z,51.30
2018-09-08T20:52:14.104Z,51.30
2018-09-08T20:56:17.752Z,51.50
2018-09-08T21:00:21.446Z,51.50
2018-09-08T21:04:25.105Z,51.30
2018-09-08T21:08:28.768Z,51.50
2018-09-08T21:12:32.430Z,51.50
2018-09-08T21:16:36.080Z,51.70
2018-09-08T21:20:39.727Z,51.70
2018-09-08T21:24:43.324Z,51.90
2018-09-08T21:28:47.007Z,52.60
2018-09-08T21:32:50.641Z,51.90
2018-09-08T21:36:54.308Z,51.90
2018-09-08T21:40:57.960Z,51.80
2018-09-08T21:45:01.624Z,51.90
2018-09-08T21:49:05.379Z,52.20
2018-09-08T21:53:15.454Z,52.10
2018-09-08T21:57:19.123Z,52.00
2018-09-08T22:01:26.723Z,52.10
2018-09-08T22:05:30.383Z,52.40
2018-09-08T22:09:34.074Z,51.90
2018-09-08T22:13:37.747Z,52.20
2018-09-08T22:17:41.474Z,52.10
2018-09-08T22:21:45.109Z,52.00
2018-09-08T22:25:48.766Z,52.00
2018-09-08T22:29:52.529Z,52.00
2018-09-08T22:33:56.168Z,52.10
2018-09-08T22:37:59.822Z,52.10
2018-09-08T22:42:03.523Z,52.10
2018-09-08T22:46:07.409Z,52.00
2018-09-08T22:50:11.183Z,52.10
2018-09-08T22:54:14.832Z,52.10
2018-09-08T22:58:18.533Z,52.20
2018-09-08T23:02:22.172Z,52.60
2018-09-08T23:06:25.806Z,52.30
2018-09-08T23:10:29.457Z,52.30
2018-09-08T23:14:33.105Z,52.20
2018-09-08T23:18:36.759Z,52.50
2018-09-08T23:22:40.412Z,52.60
2018-09-08T23:26:44.060Z,52.40
2018-09-08T23:30:47.715Z,52.30
2018-09-08T23:34:51.381Z,52.50
2018-09-08T23:38:55.076Z,52.30
2018-09-08T23:42:58.720Z,52.20
2018-09-08T23:47:02.380Z,52.30
2018-09-08T23:51:06.071Z,52.40
2018-09-08T23:55:09.743Z,52.30
2018-09-08T23:59:13.479Z,52.30
